Time;durP1;ratioP1;P1;durP2;ratioP2;P2;SDS_P1;SDS_P2;PMS_P1;PMS_P2;Temp;Humidity;BMP_temperature;BMP_pressure;BME280_temperature;BME280_humidity;BME280_pressure;Samples;Min_cycle;Max_cycle;Signal;HPM_P1;HPM_P2
2022/06/12 00:01:57;;;;;;;28.63;4.38;;;;;;;;;;5062500;28;20609;-57
2022/06/12 00:04:24;;;;;;;25.08;4.05;;;;;;;;;;5074498;28;20202;-53
2022/06/12 00:06:50;;;;;;;29.52;4.72;;;;;;;;;;5073139;28;20273;-53
2022/06/12 00:09:16;;;;;;;24.80;4.25;;;;;;;;;;5091382;28;20228;-55
2022/06/12 00:11:44;;;;;;;30.13;4.22;;;;;;;;;;5072059;28;20193;-53
2022/06/12 00:14:11;;;;;;;28.02;4.25;;;;;;;;;;5074106;28;20614;-56
2022/06/12 00:16:41;;;;;;;21.13;4.05;;;;;;;;;;5073559;28;20265;-54
2022/06/12 00:19:07;;;;;;;28.45;4.50;;;;;;;;;;5076039;28;20171;-54
2022/06/12 00:21:34;;;;;;;30.52;5.00;;;;;;;;;;5070253;28;20340;-55
2022/06/12 00:24:02;;;;;;;27.60;4.97;;;;;;;;;;5075514;28;20214;-54
2022/06/12 00:26:36;;;;;;;28.88;5.07;;;;;;;;;;5052191;28;20179;-54
2022/06/12 00:29:10;;;;;;;22.55;4.30;;;;;;;;;;5070890;28;20270;-55
2022/06/12 00:31:38;;;;;;;29.25;4.55;;;;;;;;;;5058642;28;20170;-53
2022/06/12 00:34:05;;;;;;;36.50;5.10;;;;;;;;;;5072700;28;20293;-60
2022/06/12 00:36:31;;;;;;;28.08;4.45;;;;;;;;;;5072616;28;20179;-55
2022/06/12 00:38:57;;;;;;;28.70;4.80;;;;;;;;;;5073881;28;20178;-53
2022/06/12 00:41:24;;;;;;;36.17;5.13;;;;;;;;;;5071971;28;20191;-55
2022/06/12 00:43:50;;;;;;;24.40;4.53;;;;;;;;;;5073361;28;20682;-55
2022/06/12 00:46:35;;;;;;;28.48;4.90;;;;;;;;;;5072469;28;20198;-55
2022/06/12 00:49:06;;;;;;;29.48;4.63;;;;;;;;;;5073668;28;20178;-54
2022/06/12 00:51:33;;;;;;;36.55;5.00;;;;;;;;;;5071329;28;20179;-55
2022/06/12 00:53:59;;;;;;;29.73;4.63;;;;;;;;;;5074982;28;20693;-55
2022/06/12 00:56:35;;;;;;;24.20;4.45;;;;;;;;;;5070963;28;20263;-56
2022/06/12 00:59:08;;;;;;;38.35;5.20;;;;;;;;;;5073536;28;20200;-54
2022/06/12 01:01:40;;;;;;;25.30;4.75;;;;;;;;;;5072229;28;20178;-54
2022/06/12 01:06:53;;;;;;;31.67;4.75;;;;;;;;;;5073224;28;20186;-55
2022/06/12 01:09:22;;;;;;;35.22;4.95;;;;;;;;;;5075594;28;20166;-58
2022/06/12 01:11:49;;;;;;;28.35;4.70;;;;;;;;;;5072444;28;20643;-55
2022/06/12 01:14:17;;;;;;;28.70;5.07;;;;;;;;;;5069565;28;20281;-58
2022/06/12 01:16:48;;;;;;;33.22;5.00;;;;;;;;;;5072386;28;20202;-52
2022/06/12 01:19:37;;;;;;;22.65;4.70;;;;;;;;;;5073176;28;20273;-56
2022/06/12 01:22:24;;;;;;;27.15;4.55;;;;;;;;;;5067062;28;20194;-55
2022/06/12 01:25:09;;;;;;;31.50;5.32;;;;;;;;;;5074448;28;20206;-54
2022/06/12 01:27:54;;;;;;;35.33;5.55;;;;;;;;;;5071058;28;20179;-55
2022/06/12 01:30:20;;;;;;;35.78;5.22;;;;;;;;;;5074280;28;20175;-55
2022/06/12 01:32:51;;;;;;;32.60;5.57;;;;;;;;;;5071392;28;20178;-54
2022/06/12 01:35:39;;;;;;;26.73;5.47;;;;;;;;;;5072802;28;20284;-54
2022/06/12 01:38:14;;;;;;;31.35;5.63;;;;;;;;;;5072153;28;20183;-52
2022/06/12 01:40:43;;;;;;;36.13;5.82;;;;;;;;;;5072571;28;20177;-54
2022/06/12 01:43:19;;;;;;;33.22;5.00;;;;;;;;;;5070876;28;20313;-52
2022/06/12 01:45:53;;;;;;;28.95;5.10;;;;;;;;;;5072707;28;20652;-54
2022/06/12 01:48:38;;;;;;;39.60;6.25;;;;;;;;;;5054959;28;20185;-52
2022/06/12 01:51:17;;;;;;;32.53;5.47;;;;;;;;;;5069745;28;20176;-54
2022/06/12 01:53:46;;;;;;;33.60;5.80;;;;;;;;;;5073876;28;20206;-54
2022/06/12 01:56:15;;;;;;;30.92;5.57;;;;;;;;;;5071453;28;20685;-53
2022/06/12 01:58:56;;;;;;;41.35;5.57;;;;;;;;;;5073267;28;20175;-54
2022/06/12 02:01:28;;;;;;;40.05;6.38;;;;;;;;;;5069942;28;20181;-53
2022/06/12 02:04:06;;;;;;;40.67;6.50;;;;;;;;;;5072738;28;20221;-53
2022/06/12 02:06:40;;;;;;;35.42;6.60;;;;;;;;;;5070852;28;20182;-53
2022/06/12 02:09:13;;;;;;;37.08;5.97;;;;;;;;;;5071885;28;20221;-58
2022/06/12 02:14:50;;;;;;;33.85;6.60;;;;;;;;;;5073469;28;20536;-57
2022/06/12 02:17:20;;;;;;;30.48;6.03;;;;;;;;;;5074579;28;20480;-58
2022/06/12 02:19:47;;;;;;;39.15;6.88;;;;;;;;;;5074290;28;20713;-58
2022/06/12 02:22:18;;;;;;;44.25;6.80;;;;;;;;;;5055791;28;20179;-58
2022/06/12 02:24:47;;;;;;;39.45;6.90;;;;;;;;;;5073339;28;20195;-59
2022/06/12 02:27:19;;;;;;;42.13;6.45;;;;;;;;;;5074084;28;20182;-57
2022/06/12 02:29:49;;;;;;;42.47;7.43;;;;;;;;;;5074039;28;20625;-58
2022/06/12 02:32:25;;;;;;;38.83;6.80;;;;;;;;;;5073647;28;20610;-58
2022/06/12 02:34:54;;;;;;;37.92;6.82;;;;;;;;;;5073629;28;20607;-56
2022/06/12 02:37:24;;;;;;;35.15;6.68;;;;;;;;;;5073980;28;20171;-59
2022/06/12 02:39:55;;;;;;;31.45;6.57;;;;;;;;;;5075032;28;20735;-59
2022/06/12 02:42:24;;;;;;;40.47;6.72;;;;;;;;;;5075035;28;20257;-61
2022/06/12 02:44:54;;;;;;;38.78;6.50;;;;;;;;;;5074468;28;20190;-59
2022/06/12 02:47:25;;;;;;;34.35;6.88;;;;;;;;;;5075153;28;20167;-59
2022/06/12 02:49:51;;;;;;;42.45;6.70;;;;;;;;;;5074490;28;20228;-65
2022/06/12 02:52:24;;;;;;;35.78;6.35;;;;;;;;;;5075419;28;20174;-57
2022/06/12 02:54:57;;;;;;;31.17;6.00;;;;;;;;;;5073792;28;20202;-59
2022/06/12 02:57:36;;;;;;;25.38;5.47;;;;;;;;;;5073367;28;20170;-58
2022/06/12 03:00:12;;;;;;;30.52;5.82;;;;;;;;;;5074235;28;20216;-58
2022/06/12 03:02:41;;;;;;;37.40;6.50;;;;;;;;;;5073454;28;20167;-58
2022/06/12 03:05:07;;;;;;;40.95;6.90;;;;;;;;;;5074652;28;20208;-59
2022/06/12 03:07:33;;;;;;;38.95;6.63;;;;;;;;;;5077519;28;20182;-58
2022/06/12 03:10:02;;;;;;;32.70;6.32;;;;;;;;;;5075733;28;20221;-58
2022/06/12 03:12:28;;;;;;;41.25;6.60;;;;;;;;;;5077505;28;20185;-60
2022/06/12 03:14:55;;;;;;;31.08;6.28;;;;;;;;;;5077199;28;20197;-59
2022/06/12 03:17:21;;;;;;;28.65;6.18;;;;;;;;;;5077238;28;20170;-59
2022/06/12 03:19:54;;;;;;;37.65;6.85;;;;;;;;;;5076975;28;20179;-60
2022/06/12 03:22:39;;;;;;;33.72;5.70;;;;;;;;;;5077301;28;20647;-58
2022/06/12 03:25:05;;;;;;;28.80;6.35;;;;;;;;;;5076941;28;20190;-62
2022/06/12 03:27:38;;;;;;;30.33;5.95;;;;;;;;;;5075676;28;20178;-58
2022/06/12 03:30:10;;;;;;;35.83;5.68;;;;;;;;;;5076764;28;20179;-58
2022/06/12 03:32:53;;;;;;;32.08;6.00;;;;;;;;;;5077013;28;20182;-61
2022/06/12 03:35:38;;;;;;;35.67;5.88;;;;;;;;;;5076791;28;20202;-62
2022/06/12 03:38:19;;;;;;;32.20;5.82;;;;;;;;;;5077275;28;20187;-59
2022/06/12 03:40:48;;;;;;;43.00;6.47;;;;;;;;;;5076629;28;20210;-57
2022/06/12 03:43:18;;;;;;;32.72;5.57;;;;;;;;;;5075354;28;20233;-57
2022/06/12 03:45:50;;;;;;;28.13;5.60;;;;;;;;;;5075914;28;20221;-58
2022/06/12 03:48:45;;;;;;;27.13;5.10;;;;;;;;;;5076143;28;20166;-58
2022/06/12 03:51:25;;;;;;;28.20;5.38;;;;;;;;;;5067119;28;20214;-57
2022/06/12 03:53:59;;;;;;;28.00;5.53;;;;;;;;;;5076698;28;20621;-58
2022/06/12 03:59:25;;;;;;;25.55;5.63;;;;;;;;;;5076224;28;20233;-58
2022/06/12 04:01:52;;;;;;;27.45;5.70;;;;;;;;;;5076491;28;20163;-59
2022/06/12 04:04:20;;;;;;;30.98;5.30;;;;;;;;;;5075555;28;20210;-58
2022/06/12 04:06:47;;;;;;;26.30;5.53;;;;;;;;;;5075851;28;20228;-58
2022/06/12 04:09:24;;;;;;;27.88;5.22;;;;;;;;;;5076426;28;20171;-59
2022/06/12 04:11:53;;;;;;;26.58;5.45;;;;;;;;;;5075368;28;20216;-59
2022/06/12 04:14:20;;;;;;;20.63;4.65;;;;;;;;;;5075873;28;20183;-60
2022/06/12 04:16:48;;;;;;;21.00;4.95;;;;;;;;;;5075562;28;20175;-58
2022/06/12 04:19:18;;;;;;;23.27;4.80;;;;;;;;;;5076450;28;20171;-58
2022/06/12 04:21:59;;;;;;;21.27;4.47;;;;;;;;;;5075642;28;20169;-58
2022/06/12 04:24:46;;;;;;;22.73;4.57;;;;;;;;;;5075434;28;20210;-59
2022/06/12 04:27:24;;;;;;;19.67;3.88;;;;;;;;;;5075361;28;20545;-59
2022/06/12 04:30:02;;;;;;;19.33;4.40;;;;;;;;;;5075438;28;20522;-56
2022/06/12 04:32:29;;;;;;;13.95;3.92;;;;;;;;;;5075192;28;20662;-59
2022/06/12 04:34:55;;;;;;;15.30;3.47;;;;;;;;;;5075981;28;20183;-59
2022/06/12 04:37:23;;;;;;;14.18;3.42;;;;;;;;;;5075287;28;20622;-62
2022/06/12 04:39:50;;;;;;;18.52;4.07;;;;;;;;;;5075307;28;20224;-58
2022/06/12 04:42:17;;;;;;;17.90;4.15;;;;;;;;;;5075151;28;20711;-57
2022/06/12 04:44:44;;;;;;;16.30;3.30;;;;;;;;;;5075038;28;20233;-58
2022/06/12 04:47:14;;;;;;;13.48;3.67;;;;;;;;;;5075009;28;20167;-58
2022/06/12 04:49:40;;;;;;;13.82;3.88;;;;;;;;;;5091189;28;20175;-57
2022/06/12 04:52:08;;;;;;;13.60;3.15;;;;;;;;;;5075312;28;20206;-58
2022/06/12 04:54:34;;;;;;;12.75;3.20;;;;;;;;;;5074917;28;20182;-57
2022/06/12 04:57:01;;;;;;;14.73;3.47;;;;;;;;;;5073671;28;20171;-58
2022/06/12 04:59:28;;;;;;;18.75;3.80;;;;;;;;;;5075123;28;20179;-59
2022/06/12 05:01:54;;;;;;;17.27;3.70;;;;;;;;;;5090724;28;20178;-57
2022/06/12 05:04:21;;;;;;;13.68;3.38;;;;;;;;;;5074869;28;20210;-58
2022/06/12 05:06:49;;;;;;;13.27;3.78;;;;;;;;;;5073567;28;20187;-56
2022/06/12 05:09:16;;;;;;;18.05;3.78;;;;;;;;;;5075197;28;20648;-58
2022/06/12 05:11:43;;;;;;;11.25;2.90;;;;;;;;;;5073305;28;20225;-57
2022/06/12 05:14:10;;;;;;;13.02;3.25;;;;;;;;;;5075303;28;20327;-57
2022/06/12 05:16:36;;;;;;;10.70;3.13;;;;;;;;;;5074339;28;20622;-57
2022/06/12 05:19:03;;;;;;;16.05;3.63;;;;;;;;;;5073173;28;20178;-58
2022/06/12 05:21:30;;;;;;;18.15;3.47;;;;;;;;;;5074257;28;20174;-56
2022/06/12 05:23:57;;;;;;;16.70;3.75;;;;;;;;;;5090138;28;20305;-56
2022/06/12 05:26:23;;;;;;;17.23;3.65;;;;;;;;;;5074739;28;20224;-56
2022/06/12 05:28:50;;;;;;;9.80;3.85;;;;;;;;;;5073361;28;20176;-54
2022/06/12 05:31:16;;;;;;;14.60;3.25;;;;;;;;;;5074607;28;20586;-60
2022/06/12 05:33:43;;;;;;;18.17;3.70;;;;;;;;;;5074548;28;20187;-58
2022/06/12 05:36:12;;;;;;;20.35;3.17;;;;;;;;;;5073839;28;20181;-58
2022/06/12 05:38:38;;;;;;;14.23;4.32;;;;;;;;;;5074010;28;20167;-57
2022/06/12 05:41:04;;;;;;;16.05;3.70;;;;;;;;;;5074944;28;20265;-59
2022/06/12 05:43:30;;;;;;;12.50;3.45;;;;;;;;;;5089544;28;20242;-58
2022/06/12 05:45:56;;;;;;;12.25;3.40;;;;;;;;;;5073853;28;20174;-59
2022/06/12 05:48:23;;;;;;;17.02;3.80;;;;;;;;;;5073956;28;20293;-58
2022/06/12 05:50:51;;;;;;;11.73;3.40;;;;;;;;;;5073596;28;20198;-63
2022/06/12 05:53:18;;;;;;;12.90;3.40;;;;;;;;;;5073927;28;20171;-58
2022/06/12 05:55:45;;;;;;;13.73;3.17;;;;;;;;;;5074147;28;20178;-57
2022/06/12 05:58:12;;;;;;;10.15;3.50;;;;;;;;;;5073808;28;20170;-57
2022/06/12 06:00:38;;;;;;;13.18;3.63;;;;;;;;;;5073997;28;20182;-57
2022/06/12 06:03:04;;;;;;;10.95;3.35;;;;;;;;;;5073387;28;20210;-58
2022/06/12 06:05:31;;;;;;;10.48;2.97;;;;;;;;;;5073725;28;20269;-59
2022/06/12 06:07:58;;;;;;;15.45;3.47;;;;;;;;;;5072430;28;20669;-57
2022/06/12 06:10:25;;;;;;;9.43;3.25;;;;;;;;;;5073918;28;20209;-59
2022/06/12 06:12:52;;;;;;;15.93;3.13;;;;;;;;;;5089280;28;20178;-59
2022/06/12 06:15:18;;;;;;;12.90;3.53;;;;;;;;;;5073513;28;20163;-61
2022/06/12 06:17:45;;;;;;;14.48;3.35;;;;;;;;;;5056568;28;20182;-60
2022/06/12 06:20:16;;;;;;;17.27;5.43;;;;;;;;;;5072443;28;20248;-58
2022/06/12 06:22:42;;;;;;;18.38;3.70;;;;;;;;;;5073172;28;20258;-58
2022/06/12 06:25:09;;;;;;;15.82;3.30;;;;;;;;;;5073634;28;20166;-57
2022/06/12 06:27:35;;;;;;;15.02;3.28;;;;;;;;;;5073726;28;20265;-57
2022/06/12 06:30:01;;;;;;;16.13;3.25;;;;;;;;;;5073210;28;20277;-58
2022/06/12 06:32:28;;;;;;;13.40;3.10;;;;;;;;;;5088851;28;20236;-59
2022/06/12 06:34:54;;;;;;;11.38;3.05;;;;;;;;;;5073089;28;20170;-58
2022/06/12 06:37:21;;;;;;;13.15;3.60;;;;;;;;;;5071885;28;20254;-58
2022/06/12 06:39:47;;;;;;;12.15;2.83;;;;;;;;;;5071667;28;20170;-57
2022/06/12 06:42:13;;;;;;;14.32;3.75;;;;;;;;;;5071636;28;20285;-58
2022/06/12 06:47:27;;;;;;;13.73;3.55;;;;;;;;;;5072975;28;20171;-57
2022/06/12 06:49:53;;;;;;;12.85;3.28;;;;;;;;;;5073161;28;20646;-58
2022/06/12 06:52:20;;;;;;;17.17;3.15;;;;;;;;;;5071729;28;20731;-63
2022/06/12 06:54:46;;;;;;;15.27;3.38;;;;;;;;;;5073188;28;20270;-57
2022/06/12 06:57:13;;;;;;;15.98;3.60;;;;;;;;;;5071888;28;20190;-59
2022/06/12 06:59:39;;;;;;;12.02;3.42;;;;;;;;;;5073408;28;20518;-57
2022/06/12 07:02:05;;;;;;;17.10;3.58;;;;;;;;;;5073579;28;20182;-58
2022/06/12 07:04:32;;;;;;;12.52;3.78;;;;;;;;;;5072481;28;20565;-58
2022/06/12 07:06:58;;;;;;;8.75;3.03;;;;;;;;;;5072468;28;20197;-58
2022/06/12 07:09:24;;;;;;;14.40;4.00;;;;;;;;;;5073628;28;20232;-58
2022/06/12 07:11:50;;;;;;;14.18;3.22;;;;;;;;;;5072673;28;20171;-58
2022/06/12 07:14:17;;;;;;;15.70;3.35;;;;;;;;;;5072968;28;20280;-62
2022/06/12 07:16:43;;;;;;;15.98;3.65;;;;;;;;;;5038342;28;20213;-61
2022/06/12 07:19:10;;;;;;;10.63;3.03;;;;;;;;;;5072794;28;20206;-57
2022/06/12 07:21:36;;;;;;;11.35;3.38;;;;;;;;;;5071539;28;20180;-57
2022/06/12 07:24:02;;;;;;;13.02;3.50;;;;;;;;;;5071870;28;20207;-60
2022/06/12 07:26:31;;;;;;;12.95;3.75;;;;;;;;;;5073011;28;20263;-59
2022/06/12 07:28:57;;;;;;;20.00;4.03;;;;;;;;;;5073288;28;20623;-59
2022/06/12 07:31:23;;;;;;;16.63;3.53;;;;;;;;;;5071654;28;20183;-57
2022/06/12 07:33:49;;;;;;;12.95;3.50;;;;;;;;;;5071501;28;20182;-56
2022/06/12 07:36:16;;;;;;;12.18;3.38;;;;;;;;;;5088803;28;20227;-56
2022/06/12 07:38:43;;;;;;;11.63;3.80;;;;;;;;;;5072488;28;20167;-57
2022/06/12 07:41:11;;;;;;;11.90;3.35;;;;;;;;;;5072733;28;20190;-56
2022/06/12 07:43:37;;;;;;;14.45;3.42;;;;;;;;;;5073054;28;20692;-57
2022/06/12 07:46:05;;;;;;;10.68;2.92;;;;;;;;;;5072234;28;20668;-58
2022/06/12 07:48:31;;;;;;;14.50;3.70;;;;;;;;;;5072999;28;20166;-58
2022/06/12 07:50:58;;;;;;;12.57;3.20;;;;;;;;;;5072464;28;20232;-58
2022/06/12 07:53:24;;;;;;;14.02;3.30;;;;;;;;;;5074868;28;20224;-60
2022/06/12 07:55:51;;;;;;;14.60;3.47;;;;;;;;;;5075980;28;20185;-62
2022/06/12 07:58:18;;;;;;;11.57;3.00;;;;;;;;;;5076252;28;20248;-62
2022/06/12 08:00:44;;;;;;;14.32;3.35;;;;;;;;;;5076091;28;20197;-60
2022/06/12 08:03:11;;;;;;;10.60;2.90;;;;;;;;;;5076233;28;20285;-59
2022/06/12 08:05:37;;;;;;;14.77;3.10;;;;;;;;;;5075777;28;20197;-58
2022/06/12 08:08:04;;;;;;;13.40;3.33;;;;;;;;;;5075561;28;20174;-57
2022/06/12 08:10:30;;;;;;;8.93;2.95;;;;;;;;;;5075991;28;20288;-57
2022/06/12 08:12:56;;;;;;;11.55;3.10;;;;;;;;;;5074566;28;20179;-60
2022/06/12 08:15:25;;;;;;;11.48;3.30;;;;;;;;;;5075592;28;20198;-59
2022/06/12 08:17:51;;;;;;;16.15;3.22;;;;;;;;;;5076089;28;20178;-60
2022/06/12 08:20:30;;;;;;;19.98;3.25;;;;;;;;;;5074248;28;20637;-58
2022/06/12 08:22:59;;;;;;;12.73;3.22;;;;;;;;;;5075751;28;20198;-60
2022/06/12 08:25:26;;;;;;;15.82;3.10;;;;;;;;;;5075831;28;20167;-59
2022/06/12 08:27:52;;;;;;;11.82;3.05;;;;;;;;;;5075362;28;20227;-59
2022/06/12 08:30:18;;;;;;;13.70;3.67;;;;;;;;;;5075454;28;20175;-59
2022/06/12 08:32:47;;;;;;;13.60;3.65;;;;;;;;;;5073967;28;20175;-59
2022/06/12 08:35:16;;;;;;;12.23;2.97;;;;;;;;;;5075683;28;20167;-60
2022/06/12 08:37:43;;;;;;;14.15;3.13;;;;;;;;;;5075698;28;20638;-57
2022/06/12 08:40:15;;;;;;;14.93;3.80;;;;;;;;;;5075118;28;20175;-57
2022/06/12 08:42:50;;;;;;;11.80;3.10;;;;;;;;;;5074372;28;20216;-56
2022/06/12 08:45:21;;;;;;;10.13;3.10;;;;;;;;;;5075537;28;20167;-58
2022/06/12 08:48:06;;;;;;;17.00;3.28;;;;;;;;;;5075513;28;20171;-56
2022/06/12 08:50:36;;;;;;;16.13;3.38;;;;;;;;;;5073694;28;20274;-58
2022/06/12 08:53:06;;;;;;;17.38;3.33;;;;;;;;;;5056782;28;20182;-55
2022/06/12 08:55:47;;;;;;;13.45;4.13;;;;;;;;;;5075165;28;20177;-55
2022/06/12 08:58:24;;;;;;;12.85;3.75;;;;;;;;;;5074241;28;20167;-56
2022/06/12 09:00:50;;;;;;;14.55;3.22;;;;;;;;;;5073203;28;20154;-66
2022/06/12 09:03:19;;;;;;;10.95;3.30;;;;;;;;;;5074338;28;20281;-58
2022/06/12 09:05:51;;;;;;;10.43;3.53;;;;;;;;;;5075006;28;20249;-57
2022/06/12 09:08:37;;;;;;;13.05;3.38;;;;;;;;;;5073739;28;20286;-57
2022/06/12 09:11:15;;;;;;;13.13;3.92;;;;;;;;;;5074353;28;20187;-56
2022/06/12 09:13:41;;;;;;;15.90;3.40;;;;;;;;;;5074217;28;20251;-58
2022/06/12 09:16:15;;;;;;;16.88;3.83;;;;;;;;;;5074472;28;20181;-56
2022/06/12 09:19:00;;;;;;;13.95;3.55;;;;;;;;;;5074190;28;20177;-56
2022/06/12 09:21:26;;;;;;;17.73;3.92;;;;;;;;;;5074686;28;20174;-56
2022/06/12 09:23:55;;;;;;;12.73;3.28;;;;;;;;;;5074396;28;20283;-56
2022/06/12 09:26:40;;;;;;;15.32;3.53;;;;;;;;;;5073061;28;20178;-57
2022/06/12 09:29:12;;;;;;;17.67;3.85;;;;;;;;;;5074286;28;20498;-57
2022/06/12 09:31:48;;;;;;;11.23;2.90;;;;;;;;;;5074172;28;20531;-57
2022/06/12 09:34:25;;;;;;;13.98;3.85;;;;;;;;;;5074577;28;20178;-56
2022/06/12 09:36:51;;;;;;;15.07;3.78;;;;;;;;;;5073609;28;20198;-57
2022/06/12 09:39:17;;;;;;;12.75;3.72;;;;;;;;;;5074066;28;20174;-58
2022/06/12 09:41:46;;;;;;;14.13;3.30;;;;;;;;;;5073985;28;20258;-57
2022/06/12 09:44:14;;;;;;;15.65;3.97;;;;;;;;;;5073591;28;20227;-56
2022/06/12 09:46:45;;;;;;;16.48;4.30;;;;;;;;;;5089550;28;20188;-61
2022/06/12 09:49:31;;;;;;;20.13;3.95;;;;;;;;;;5074170;28;20166;-61
2022/06/12 09:52:24;;;;;;;13.75;3.53;;;;;;;;;;5072472;28;20240;-61
2022/06/12 09:54:53;;;;;;;12.23;3.22;;;;;;;;;;5057808;28;20198;-61
2022/06/12 09:57:38;;;;;;;15.70;3.38;;;;;;;;;;5072748;28;20200;-60
2022/06/12 10:00:05;;;;;;;13.38;3.72;;;;;;;;;;5089645;28;20175;-60
2022/06/12 10:02:51;;;;;;;13.80;3.35;;;;;;;;;;5073436;28;20196;-58
2022/06/12 10:05:20;;;;;;;11.27;3.15;;;;;;;;;;5074444;28;20220;-56
2022/06/12 10:08:05;;;;;;;16.83;3.00;;;;;;;;;;5072391;28;20167;-56
2022/06/12 10:10:35;;;;;;;16.45;3.10;;;;;;;;;;5073600;28;20235;-61
2022/06/12 10:13:04;;;;;;;14.60;3.35;;;;;;;;;;5073042;28;20206;-62
2022/06/12 10:15:33;;;;;;;11.57;3.22;;;;;;;;;;5056495;28;20183;-63
2022/06/12 10:18:06;;;;;;;9.82;2.88;;;;;;;;;;5073341;28;20629;-65
2022/06/12 10:20:45;;;;;;;11.48;3.05;;;;;;;;;;5073502;28;20163;-62
2022/06/12 10:23:11;;;;;;;18.30;3.58;;;;;;;;;;5073470;28;20234;-58
2022/06/12 10:25:39;;;;;;;16.50;3.67;;;;;;;;;;5071820;28;20185;-62
2022/06/12 10:28:05;;;;;;;13.27;3.60;;;;;;;;;;5072790;28;20185;-61
2022/06/12 10:30:40;;;;;;;14.70;3.85;;;;;;;;;;5072910;28;20254;-61
2022/06/12 10:33:15;;;;;;;16.30;3.75;;;;;;;;;;5073353;28;20162;-61
2022/06/12 10:35:47;;;;;;;17.92;3.88;;;;;;;;;;5073381;28;20193;-61
2022/06/12 10:38:13;;;;;;;18.13;3.88;;;;;;;;;;5073168;28;20183;-61
2022/06/12 10:40:47;;;;;;;12.10;3.47;;;;;;;;;;5073394;28;20529;-60
2022/06/12 10:43:45;;;;;;;14.77;4.00;;;;;;;;;;5071694;28;20218;-60
2022/06/12 10:46:14;;;;;;;12.68;3.50;;;;;;;;;;5049929;28;20286;-61
2022/06/12 10:48:40;;;;;;;15.77;3.95;;;;;;;;;;5072971;28;20179;-60
2022/06/12 10:51:16;;;;;;;14.80;4.63;;;;;;;;;;5073114;28;20181;-60
2022/06/12 10:53:42;;;;;;;15.38;4.25;;;;;;;;;;5072894;28;20178;-61
2022/06/12 10:56:08;;;;;;;15.88;4.28;;;;;;;;;;5071515;28;20186;-59
2022/06/12 10:58:47;;;;;;;18.52;4.30;;;;;;;;;;5073169;28;20277;-58
2022/06/12 11:01:28;;;;;;;13.73;4.00;;;;;;;;;;5072944;28;20178;-59
2022/06/12 11:03:59;;;;;;;18.83;4.03;;;;;;;;;;5072707;28;20213;-59
2022/06/12 11:06:29;;;;;;;15.98;4.13;;;;;;;;;;5073295;28;20220;-65
2022/06/12 11:08:55;;;;;;;14.43;3.65;;;;;;;;;;5072485;28;20561;-60
2022/06/12 11:11:21;;;;;;;16.40;3.70;;;;;;;;;;5072219;28;20179;-60
2022/06/12 11:14:07;;;;;;;13.25;4.00;;;;;;;;;;5073080;28;20187;-60
2022/06/12 11:16:41;;;;;;;9.90;2.85;;;;;;;;;;5072959;28;20183;-60
2022/06/12 11:19:29;;;;;;;17.75;4.20;;;;;;;;;;5071227;28;20638;-57
2022/06/12 11:21:58;;;;;;;11.32;3.38;;;;;;;;;;5088140;28;20178;-58
2022/06/12 11:24:51;;;;;;;17.27;4.20;;;;;;;;;;5071387;28;20214;-59
2022/06/12 11:27:17;;;;;;;15.13;3.55;;;;;;;;;;5073931;28;20681;-59
2022/06/12 11:29:47;;;;;;;18.02;3.58;;;;;;;;;;5075778;28;20182;-64
2022/06/12 11:32:13;;;;;;;14.13;3.10;;;;;;;;;;5075652;28;20259;-59
2022/06/12 11:35:02;;;;;;;14.05;3.30;;;;;;;;;;5075371;28;20186;-60
2022/06/12 11:37:55;;;;;;;12.63;2.97;;;;;;;;;;5069526;28;20202;-60
2022/06/12 11:40:45;;;;;;;15.32;3.80;;;;;;;;;;5058810;28;20321;-60
2022/06/12 11:43:26;;;;;;;11.90;3.42;;;;;;;;;;5074873;28;20223;-60
2022/06/12 11:46:11;;;;;;;12.60;3.17;;;;;;;;;;5075586;28;20181;-64
2022/06/12 11:48:40;;;;;;;14.38;2.97;;;;;;;;;;5075904;28;20589;-59
2022/06/12 11:51:12;;;;;;;9.90;2.75;;;;;;;;;;5075577;28;20630;-59
2022/06/12 11:53:44;;;;;;;16.02;3.33;;;;;;;;;;5075801;28;20300;-62
2022/06/12 11:56:29;;;;;;;14.98;3.83;;;;;;;;;;5076100;28;20175;-61
2022/06/12 11:59:15;;;;;;;11.57;3.10;;;;;;;;;;5075394;28;20178;-61
2022/06/12 12:01:58;;;;;;;13.32;3.78;;;;;;;;;;5067758;28;20605;-61
2022/06/12 12:04:27;;;;;;;18.60;3.55;;;;;;;;;;5075263;28;20657;-62
2022/06/12 12:07:00;;;;;;;13.40;2.95;;;;;;;;;;5074647;28;20171;-62
2022/06/12 12:09:26;;;;;;;12.00;3.15;;;;;;;;;;5074743;28;20259;-62
2022/06/12 12:11:59;;;;;;;13.45;3.17;;;;;;;;;;5075828;28;20193;-62
2022/06/12 12:14:28;;;;;;;14.77;3.30;;;;;;;;;;5075991;28;20623;-63
2022/06/12 12:16:58;;;;;;;16.35;3.53;;;;;;;;;;5091528;28;20179;-62
2022/06/12 12:19:34;;;;;;;10.15;2.90;;;;;;;;;;5075747;28;20174;-62
2022/06/12 12:22:05;;;;;;;11.80;3.17;;;;;;;;;;5075828;28;20180;-62
2022/06/12 12:24:36;;;;;;;14.77;2.97;;;;;;;;;;5074550;28;20194;-63
2022/06/12 12:27:03;;;;;;;12.82;3.28;;;;;;;;;;5075910;28;20197;-63
2022/06/12 12:29:33;;;;;;;13.20;3.40;;;;;;;;;;5074124;28;20612;-63
2022/06/12 12:31:59;;;;;;;23.00;3.88;;;;;;;;;;5074402;28;20190;-62
2022/06/12 12:34:28;;;;;;;12.73;4.03;;;;;;;;;;5075072;28;20182;-63
2022/06/12 12:42:26;;;;;;;15.23;3.35;;;;;;;;;;5075270;28;20178;-63
2022/06/12 12:44:53;;;;;;;13.98;3.03;;;;;;;;;;5075630;28;20233;-63
2022/06/12 12:47:24;;;;;;;14.23;3.58;;;;;;;;;;5074848;28;20270;-62
2022/06/12 12:50:01;;;;;;;13.30;3.60;;;;;;;;;;5074843;28;20183;-61
2022/06/12 12:52:27;;;;;;;12.32;3.47;;;;;;;;;;5073587;28;20202;-61
2022/06/12 12:54:58;;;;;;;17.27;3.83;;;;;;;;;;5090363;28;20191;-60
2022/06/12 12:57:33;;;;;;;14.48;3.60;;;;;;;;;;5075399;28;20185;-61
2022/06/12 13:00:00;;;;;;;20.42;3.70;;;;;;;;;;5074622;28;20204;-66
2022/06/12 13:02:29;;;;;;;16.55;3.67;;;;;;;;;;5073336;28;20630;-62
2022/06/12 13:04:57;;;;;;;14.85;3.67;;;;;;;;;;5074637;28;20294;-61
2022/06/12 13:07:23;;;;;;;15.75;3.75;;;;;;;;;;5074005;28;20760;-60
2022/06/12 13:09:58;;;;;;;13.52;4.00;;;;;;;;;;5075203;28;20167;-60
2022/06/12 13:12:33;;;;;;;19.17;4.32;;;;;;;;;;5074360;28;20186;-61
2022/06/12 13:15:05;;;;;;;17.13;3.78;;;;;;;;;;5056777;28;20207;-61
2022/06/12 13:17:40;;;;;;;14.93;3.95;;;;;;;;;;5073586;28;20198;-60
2022/06/12 13:20:25;;;;;;;17.65;4.20;;;;;;;;;;5074722;28;20178;-61
2022/06/12 13:23:10;;;;;;;13.98;3.83;;;;;;;;;;5074617;28;20268;-61
2022/06/12 13:25:38;;;;;;;13.85;3.78;;;;;;;;;;5073109;28;20597;-63
2022/06/12 13:28:04;;;;;;;13.32;3.90;;;;;;;;;;5074772;28;20190;-61
2022/06/12 13:30:40;;;;;;;14.27;3.83;;;;;;;;;;5074120;28;20175;-60
2022/06/12 13:33:21;;;;;;;12.95;3.70;;;;;;;;;;5074320;28;20228;-60
2022/06/12 13:35:55;;;;;;;15.13;4.88;;;;;;;;;;5073946;28;20235;-61
2022/06/12 13:38:27;;;;;;;11.30;3.85;;;;;;;;;;5074329;28;20217;-60
2022/06/12 13:40:58;;;;;;;13.30;3.83;;;;;;;;;;5074325;28;20167;-62
2022/06/12 13:43:32;;;;;;;20.05;4.25;;;;;;;;;;5055463;28;20709;-62
2022/06/12 13:45:59;;;;;;;18.52;4.10;;;;;;;;;;5072851;28;20250;-61
2022/06/12 13:48:27;;;;;;;18.77;4.75;;;;;;;;;;5073536;28;20183;-61
2022/06/12 13:51:00;;;;;;;23.33;4.80;;;;;;;;;;5073481;28;20174;-61
2022/06/12 13:53:28;;;;;;;12.88;4.20;;;;;;;;;;5073854;28;20167;-60
2022/06/12 13:55:59;;;;;;;22.38;4.75;;;;;;;;;;5073734;28;20186;-63
2022/06/12 13:58:28;;;;;;;14.75;4.65;;;;;;;;;;5073700;28;20185;-60
2022/06/12 14:00:58;;;;;;;10.65;3.72;;;;;;;;;;5073846;28;20579;-60
2022/06/12 14:03:25;;;;;;;17.15;4.20;;;;;;;;;;5072675;28;20272;-60
2022/06/12 14:06:01;;;;;;;17.98;4.78;;;;;;;;;;5073239;28;20174;-62
2022/06/12 14:08:28;;;;;;;16.90;4.32;;;;;;;;;;5073704;28;20159;-60
2022/06/12 14:10:55;;;;;;;14.52;4.22;;;;;;;;;;5073841;28;20278;-64
2022/06/12 14:13:28;;;;;;;19.52;5.00;;;;;;;;;;5073184;28;20186;-61
2022/06/12 14:16:04;;;;;;;11.93;3.78;;;;;;;;;;5073207;28;20179;-60
2022/06/12 14:18:30;;;;;;;15.25;4.10;;;;;;;;;;5073778;28;20574;-60
2022/06/12 14:21:00;;;;;;;15.00;3.97;;;;;;;;;;5073888;28;20170;-59
2022/06/12 14:23:28;;;;;;;18.25;4.43;;;;;;;;;;5073853;28;20205;-60
2022/06/12 14:26:15;;;;;;;12.05;3.65;;;;;;;;;;5072833;28;20178;-60
2022/06/12 14:28:41;;;;;;;15.13;3.90;;;;;;;;;;5066338;28;20277;-60
2022/06/12 14:31:16;;;;;;;14.00;4.00;;;;;;;;;;5072781;28;20179;-61
2022/06/12 14:34:01;;;;;;;14.70;3.58;;;;;;;;;;5073178;28;20182;-60
2022/06/12 14:36:35;;;;;;;11.95;3.50;;;;;;;;;;5071698;28;20681;-60
2022/06/12 14:39:20;;;;;;;16.20;4.25;;;;;;;;;;5071765;28;20167;-59
2022/06/12 14:41:48;;;;;;;21.83;4.30;;;;;;;;;;5073053;28;20170;-59
2022/06/12 14:44:14;;;;;;;16.83;4.00;;;;;;;;;;5072457;28;20284;-60
2022/06/12 14:46:41;;;;;;;14.80;3.85;;;;;;;;;;5072798;28;20183;-59
2022/06/12 14:49:14;;;;;;;22.73;3.97;;;;;;;;;;5071799;28;20701;-59
2022/06/12 14:51:40;;;;;;;16.38;4.28;;;;;;;;;;5073363;28;20682;-60
2022/06/12 14:54:06;;;;;;;16.73;4.38;;;;;;;;;;5073110;28;20205;-60
2022/06/12 14:56:33;;;;;;;16.67;3.70;;;;;;;;;;5073190;28;20179;-59
2022/06/12 14:58:59;;;;;;;13.55;4.10;;;;;;;;;;5071960;28;20683;-62
2022/06/12 15:01:25;;;;;;;19.02;4.57;;;;;;;;;;5076929;28;20177;-60
2022/06/12 15:03:54;;;;;;;18.15;4.43;;;;;;;;;;5077177;28;20210;-60
2022/06/12 15:06:20;;;;;;;19.38;4.45;;;;;;;;;;5093218;28;20260;-61
2022/06/12 15:08:47;;;;;;;14.63;4.38;;;;;;;;;;5075466;28;20182;-60
2022/06/12 15:11:19;;;;;;;18.65;4.85;;;;;;;;;;5076044;28;20253;-59